Elliot Lake, Canada
Current Conditions -  °F | °C
As of 7:00 AM on Friday 21 Nov 2014 (Local Time) from CYZE Reporting Station
Broken Clouds Broken Clouds  
Wind Chill: -14°   Ceiling: 4800
Heat Index: -7°   Visibility: 9mi
Dew Point: -10°   Wind: 13mph
Humidity: 80%   Direction: 290°WNW
Pressure: 30.21"   Gusts: NA
Location:  46.38°N, 82.65°W
Report Text: CYZE 211200Z AUTO 29011KT 9SM BKN048 M07/M10 A3021 RMK ICG INTMT SLP244
Loading
Personal Weather Stations






























Interactive Weather Map New forecast layout! Learn more

10-Day Weather Forecast

Advertisements
Track Severe Weather on mobile